메인 페이지
METAR-TAF:

METAR-TAF

공항 :

Mitiga International Airport

트리폴리, 리비아

위도: 32-54N, 경도: 13-17E, 고도: 11m

현재 날씨관측

예보는 15분 전, 00:55시(UTC)에 발표되었습니다.
1kt
온도 26°C
습도 79%
기압 1014 hPa
시정: 7000m
맑음

METAR: HLLM 150055Z 10001KT 7000 SKC 26/22 Q1014

시각: 03:10 (01:10 UTC)

예보

예보는 14 시간 10분 전, 11:00시(UTC)에 발표되었습니다.
예보 대상 시간: 14일 12시부터 15일 12시까지 (UTC)
북북서12kt
시정 10km 이상
고도 3000ft 상공 구름 보통
고도 8000ft 상공 구름 보통
전환 중
14일 20시부터 14일 22시까지 (UTC)
여러 방향의 바람 2kt

TAF: HLLM 141100Z 1412/1512 34012KT 9999 SCT030 SCT080 BECMG 1420/1422 VRB02KT

4,000개 이상의 공항 관측 자료 및 예보 (METAR 및 TAF 보고).

지도상에서 검색 가능한 기상관측소가 노란 점과 빨간 점으로 표시되어 있습니다.

기상관측소 명을 보려면 표시 위로 마우스를 이동하세요.

날씨 관측과 예보를 보려면 클릭하세요.

지도 변경 : 확대하려면 엑스 표시가 있는 녹색 버튼, 축소하려면 빼기 표시가 있는 녹색 버튼, 다음 페이지의 지도를 보려면 녹색 화살표를 클릭하세요.


METAR-TAF: